Time;durP1;ratioP1;P1;durP2;ratioP2;P2;SDS_P1;SDS_P2;PMS_P1;PMS_P2;Temp;Humidity;BMP_temperature;BMP_pressure;BME280_temperature;BME280_humidity;BME280_pressure;Samples;Min_cycle;Max_cycle;Signal;HPM_P1;HPM_P2
2023/04/10 00:01:12;;;;;;;61.50;38.13;;;2.80;99.90;;;;;;5035520;28;20465;-71
2023/04/10 00:03:38;;;;;;;61.13;37.90;;;2.60;99.90;;;;;;5057189;28;20056;-72
2023/04/10 00:06:06;;;;;;;58.78;37.65;;;2.50;99.90;;;;;;5059424;28;20040;-70
2023/04/10 00:08:33;;;;;;;58.30;38.47;;;2.40;99.90;;;;;;5045697;28;20522;-72
2023/04/10 00:10:59;;;;;;;66.40;39.85;;;2.30;99.90;;;;;;5049611;28;20522;-71
2023/04/10 00:13:26;;;;;;;59.42;38.05;;;2.20;99.90;;;;;;5054470;28;20041;-72
2023/04/10 00:15:53;;;;;;;65.88;39.85;;;2.20;99.90;;;;;;5055415;28;20045;-72
2023/04/10 00:18:19;;;;;;;62.13;38.85;;;2.10;99.90;;;;;;5052967;28;20131;-72
2023/04/10 00:20:46;;;;;;;60.90;37.35;;;2.10;99.90;;;;;;5056210;28;20513;-72
2023/04/10 00:23:13;;;;;;;56.83;36.70;;;2.00;99.90;;;;;;5055844;28;20076;-70
2023/04/10 00:25:39;;;;;;;62.85;38.65;;;1.90;99.90;;;;;;5050684;28;20434;-73
2023/04/10 00:28:06;;;;;;;65.88;40.22;;;1.90;99.90;;;;;;5038793;28;20051;-71
2023/04/10 00:30:33;;;;;;;69.30;41.97;;;1.90;99.90;;;;;;5041407;28;20075;-71
2023/04/10 00:33:00;;;;;;;63.13;37.40;;;1.90;99.90;;;;;;5034288;28;20504;-72
2023/04/10 00:35:26;;;;;;;71.18;40.83;;;1.90;99.90;;;;;;5024760;28;20045;-71
2023/04/10 00:37:55;;;;;;;72.10;41.47;;;2.10;99.90;;;;;;5026069;28;20049;-72
2023/04/10 00:40:22;;;;;;;73.10;41.67;;;2.00;99.90;;;;;;5021320;28;20484;-71
2023/04/10 00:42:48;;;;;;;66.65;40.63;;;2.00;99.90;;;;;;5017332;28;20119;-71
2023/04/10 00:45:15;;;;;;;67.80;39.88;;;1.90;99.90;;;;;;5036834;28;20049;-72
2023/04/10 00:47:42;;;;;;;64.75;39.45;;;2.00;99.90;;;;;;5058399;28;20047;-71
2023/04/10 00:50:09;;;;;;;74.05;41.53;;;1.90;99.90;;;;;;5060305;28;20128;-71
2023/04/10 00:52:36;;;;;;;66.55;37.47;;;1.90;99.90;;;;;;5061786;28;20499;-71
2023/04/10 00:55:03;;;;;;;74.18;41.30;;;1.90;99.90;;;;;;5063635;28;20040;-69
2023/04/10 00:57:31;;;;;;;78.88;42.25;;;1.80;99.90;;;;;;5040935;28;20040;-70
2023/04/10 00:59:57;;;;;;;70.85;40.85;;;1.90;99.90;;;;;;5019421;28;20333;-72
2023/04/10 01:02:24;;;;;;;63.28;39.40;;;1.80;99.90;;;;;;5024007;28;20044;-71
2023/04/10 01:04:52;;;;;;;67.53;40.33;;;1.80;99.90;;;;;;5000107;28;20047;-71
2023/04/10 01:07:28;;;;;;;69.05;40.83;;;1.70;99.90;;;;;;5023920;28;20052;-73
2023/04/10 01:10:00;;;;;;;64.85;38.33;;;1.70;99.90;;;;;;5031920;28;20554;-72
2023/04/10 01:13:04;;;;;;;65.32;38.13;;;1.70;99.90;;;;;;5014437;28;20128;-72
2023/04/10 01:15:41;;;;;;;72.13;42.05;;;1.70;99.90;;;;;;5007711;28;20048;-72
2023/04/10 01:18:21;;;;;;;67.03;40.17;;;1.60;99.90;;;;;;5044313;28;20044;-72
2023/04/10 01:20:48;;;;;;;72.38;37.28;;;1.70;99.90;;;;;;5038106;28;20040;-72
2023/04/10 01:23:30;;;;;;;75.05;40.20;;;1.80;99.90;;;;;;5048369;28;20037;-71
2023/04/10 01:26:03;;;;;;;79.28;41.05;;;1.80;99.90;;;;;;5053499;28;20427;-72
2023/04/10 01:28:55;;;;;;;68.78;38.30;;;2.00;99.90;;;;;;5043753;28;20075;-71
2023/04/10 01:31:27;;;;;;;67.00;37.72;;;1.90;99.90;;;;;;5037484;28;20117;-72
2023/04/10 01:34:00;;;;;;;76.72;39.42;;;1.70;99.90;;;;;;5057519;28;20040;-72
2023/04/10 01:36:33;;;;;;;72.47;39.67;;;1.70;99.90;;;;;;5042090;28;20045;-70
2023/04/10 01:39:01;;;;;;;70.10;38.42;;;1.60;99.90;;;;;;5063121;28;20163;-71
2023/04/10 01:41:28;;;;;;;70.20;39.33;;;1.50;99.90;;;;;;5039644;28;20831;-71
2023/04/10 01:43:57;;;;;;;67.82;39.40;;;1.50;99.90;;;;;;5042333;28;20411;-70
2023/04/10 01:46:27;;;;;;;70.05;39.15;;;1.40;99.90;;;;;;5045817;28;20258;-70
2023/04/10 01:48:55;;;;;;;69.35;36.67;;;1.50;99.90;;;;;;5038364;28;20044;-70
2023/04/10 01:51:23;;;;;;;66.15;38.63;;;1.40;99.90;;;;;;5034394;28;20041;-71
2023/04/10 01:53:50;;;;;;;68.88;36.95;;;1.40;99.90;;;;;;5058900;28;20048;-71
2023/04/10 01:56:22;;;;;;;68.07;38.53;;;1.40;99.90;;;;;;5039308;28;20036;-70
2023/04/10 01:58:49;;;;;;;68.97;37.90;;;1.40;99.90;;;;;;5036978;28;20047;-70
2023/04/10 02:01:20;;;;;;;62.08;37.45;;;1.40;99.90;;;;;;5034178;28;20048;-70
2023/04/10 02:03:55;;;;;;;66.18;37.40;;;1.40;99.90;;;;;;5036259;28;20056;-70
2023/04/10 02:06:48;;;;;;;69.72;38.63;;;1.40;99.90;;;;;;5027205;28;20052;-71
2023/04/10 02:09:26;;;;;;;60.65;35.33;;;1.30;99.90;;;;;;5034619;28;20541;-71
2023/04/10 02:12:06;;;;;;;63.60;37.28;;;1.30;99.90;;;;;;5059127;28;20538;-71
2023/04/10 02:14:36;;;;;;;69.57;38.45;;;1.20;99.90;;;;;;5052020;28;20827;-71
2023/04/10 02:17:03;;;;;;;61.22;35.45;;;1.10;99.90;;;;;;5035883;28;20495;-72
2023/04/10 02:19:31;;;;;;;68.22;39.28;;;1.10;99.90;;;;;;5044650;28;20050;-71
2023/04/10 02:21:58;;;;;;;63.97;37.88;;;1.00;99.90;;;;;;5051184;28;20569;-72
2023/04/10 02:24:26;;;;;;;68.72;37.97;;;1.10;99.90;;;;;;5034469;28;20337;-71
2023/04/10 02:26:53;;;;;;;71.10;36.70;;;1.10;99.90;;;;;;5042524;28;20357;-72
2023/04/10 02:29:20;;;;;;;68.00;36.42;;;1.10;99.90;;;;;;5035296;28;20127;-71
2023/04/10 02:31:48;;;;;;;72.15;35.72;;;1.10;99.90;;;;;;5039237;28;20443;-72
2023/04/10 02:34:15;;;;;;;68.72;37.30;;;1.10;99.90;;;;;;5027162;28;20311;-71
2023/04/10 02:36:42;;;;;;;65.97;36.67;;;1.20;99.90;;;;;;5069005;28;20128;-72
2023/04/10 02:39:11;;;;;;;64.63;36.42;;;1.20;99.90;;;;;;5033237;28;20439;-69
2023/04/10 02:41:46;;;;;;;64.13;36.30;;;1.10;99.90;;;;;;5034609;28;20247;-70
2023/04/10 02:44:13;;;;;;;71.38;37.05;;;1.00;99.90;;;;;;5012208;28;20045;-69
2023/04/10 02:46:40;;;;;;;63.83;37.40;;;1.00;99.90;;;;;;5058523;28;20292;-71
2023/04/10 02:49:07;;;;;;;63.17;36.97;;;1.00;99.90;;;;;;5035494;28;20453;-70
2023/04/10 02:51:35;;;;;;;63.95;37.35;;;1.00;99.90;;;;;;5037300;28;20163;-71
2023/04/10 02:54:03;;;;;;;68.07;37.90;;;1.10;99.90;;;;;;5021199;28;20209;-71
2023/04/10 02:56:33;;;;;;;68.35;35.65;;;1.10;99.90;;;;;;5033577;28;20134;-71
2023/04/10 02:59:01;;;;;;;68.53;34.53;;;1.00;99.90;;;;;;5036012;28;20491;-70
2023/04/10 03:01:28;;;;;;;75.35;36.80;;;1.00;99.90;;;;;;5033013;28;20571;-70
2023/04/10 03:03:56;;;;;;;81.70;38.08;;;1.00;99.90;;;;;;5030447;28;20064;-69
2023/04/10 03:06:27;;;;;;;81.00;38.92;;;1.10;99.90;;;;;;5037543;28;20041;-71
2023/04/10 03:08:55;;;;;;;77.38;36.53;;;1.20;99.90;;;;;;5040777;28;20044;-71
2023/04/10 03:11:22;;;;;;;80.65;39.08;;;1.20;99.90;;;;;;5038090;28;20043;-71
2023/04/10 03:13:50;;;;;;;77.00;37.72;;;1.20;99.90;;;;;;5039546;28;20079;-71
2023/04/10 03:16:17;;;;;;;72.70;35.50;;;1.20;99.90;;;;;;5033508;28;20086;-71
2023/04/10 03:18:45;;;;;;;79.75;37.70;;;1.20;99.90;;;;;;5026836;28;20040;-71
2023/04/10 03:21:12;;;;;;;85.78;37.75;;;1.30;99.90;;;;;;5045850;28;20735;-70
2023/04/10 03:23:39;;;;;;;83.82;38.25;;;1.30;99.90;;;;;;5044895;28;20036;-71
2023/04/10 03:26:07;;;;;;;85.20;37.70;;;1.40;99.90;;;;;;5041249;28;20036;-71
2023/04/10 03:28:36;;;;;;;88.22;39.70;;;1.60;99.90;;;;;;5039694;28;20279;-70
2023/04/10 03:31:04;;;;;;;84.57;38.88;;;1.80;99.90;;;;;;5056349;28;20442;-72
2023/04/10 03:33:34;;;;;;;90.90;38.03;;;1.90;99.90;;;;;;5026562;28;20056;-72
2023/04/10 03:36:03;;;;;;;96.38;39.72;;;2.00;99.90;;;;;;5036566;28;20045;-71
2023/04/10 03:38:31;;;;;;;86.43;39.20;;;1.90;99.90;;;;;;5036182;28;20052;-71
2023/04/10 03:40:58;;;;;;;86.95;39.47;;;1.90;99.90;;;;;;5020204;28;20040;-72
2023/04/10 03:43:29;;;;;;;92.18;40.22;;;2.00;99.90;;;;;;5035432;28;20044;-72
2023/04/10 03:45:56;;;;;;;93.88;38.58;;;2.10;99.90;;;;;;5031575;28;20033;-70
2023/04/10 03:48:26;;;;;;;92.60;39.72;;;2.20;99.90;;;;;;5029742;28;20149;-71
2023/04/10 03:50:54;;;;;;;101.45;41.85;;;2.40;99.90;;;;;;5037741;28;20048;-70
2023/04/10 03:53:21;;;;;;;85.57;39.47;;;2.40;99.90;;;;;;5025691;28;20356;-70
2023/04/10 03:55:51;;;;;;;89.68;40.67;;;2.50;99.90;;;;;;5034891;28;20499;-71
2023/04/10 03:58:18;;;;;;;99.82;40.67;;;2.60;99.90;;;;;;5036852;28;21209;-70
2023/04/10 04:00:45;;;;;;;81.85;39.45;;;2.70;99.90;;;;;;5048066;28;20114;-72
2023/04/10 04:03:22;;;;;;;84.55;39.17;;;2.70;99.90;;;;;;5034165;28;20037;-72
2023/04/10 04:05:52;;;;;;;81.35;40.38;;;2.70;99.90;;;;;;5053398;28;20308;-71
2023/04/10 04:08:39;;;;;;;84.15;38.72;;;2.70;99.90;;;;;;5044414;28;20069;-71
2023/04/10 04:11:20;;;;;;;80.88;37.58;;;2.60;99.90;;;;;;5032098;28;21969;-72
2023/04/10 04:13:57;;;;;;;82.38;38.03;;;2.60;99.90;;;;;;5039167;28;20207;-70
2023/04/10 04:16:42;;;;;;;80.75;39.50;;;2.40;99.90;;;;;;5049792;28;20546;-72
2023/04/10 04:19:32;;;;;;;78.88;39.40;;;2.30;99.90;;;;;;5029324;28;20079;-70
2023/04/10 04:22:07;;;;;;;;;;;2.20;99.90;;;;;;5022243;28;20612;-71
2023/04/10 04:24:52;;;;;;;83.77;39.10;;;2.40;99.90;;;;;;5048291;28;20446;-69
2023/04/10 04:27:41;;;;;;;82.35;39.60;;;2.50;99.90;;;;;;5018801;28;20317;-69
2023/04/10 04:30:27;;;;;;;83.13;39.95;;;2.50;99.90;;;;;;5050996;28;20052;-71
2023/04/10 04:33:08;;;;;;;85.20;41.72;;;2.70;99.90;;;;;;5036519;28;20115;-71
2023/04/10 04:36:04;;;;;;;88.00;41.22;;;2.80;99.90;;;;;;4990877;28;20391;-69
2023/04/10 04:38:51;;;;;;;82.55;41.05;;;2.70;99.90;;;;;;5047300;28;20808;-72
2023/04/10 04:41:31;;;;;;;85.47;40.95;;;2.80;99.90;;;;;;5027960;28;20060;-71
2023/04/10 04:44:18;;;;;;;76.05;41.25;;;2.90;99.90;;;;;;5040182;28;20052;-70
2023/04/10 04:47:05;;;;;;;69.35;37.78;;;3.00;99.90;;;;;;5020227;28;20043;-72
2023/04/10 04:49:40;;;;;;;74.70;39.05;;;2.90;99.90;;;;;;5041833;28;20087;-70
2023/04/10 04:52:18;;;;;;;65.07;37.45;;;2.90;99.90;;;;;;5034671;28;20052;-71
2023/04/10 04:55:01;;;;;;;68.45;38.88;;;3.00;99.90;;;;;;5040910;28;20131;-72
2023/04/10 04:57:52;;;;;;;75.03;39.13;;;3.00;99.90;;;;;;5033183;28;20045;-72
2023/04/10 05:00:32;;;;;;;59.90;35.75;;;3.10;99.90;;;;;;5039294;28;20040;-73
2023/04/10 05:03:05;;;;;;;59.45;34.10;;;3.20;99.90;;;;;;5055314;28;20056;-71
2023/04/10 05:05:57;;;;;;;55.53;31.45;;;3.40;99.90;;;;;;5018781;28;20044;-70
2023/04/10 05:08:32;;;;;;;53.13;29.33;;;3.50;99.90;;;;;;5056242;28;20297;-71
2023/04/10 05:11:06;;;;;;;49.45;28.17;;;3.60;99.90;;;;;;5055843;28;20037;-72
2023/04/10 05:13:52;;;;;;;50.75;30.02;;;3.70;99.90;;;;;;5060159;28;20071;-73
2023/04/10 05:16:32;;;;;;;48.10;29.25;;;3.80;99.90;;;;;;5035849;28;20099;-73
2023/04/10 05:19:05;;;;;;;45.13;29.00;;;3.90;99.90;;;;;;5049604;28;20056;-71
2023/04/10 05:21:46;;;;;;;49.35;30.17;;;4.00;99.90;;;;;;5055873;28;20502;-72
2023/04/10 05:24:32;;;;;;;45.45;28.75;;;4.10;99.90;;;;;;5037413;28;20398;-69
2023/04/10 05:27:20;;;;;;;43.97;29.10;;;4.30;99.90;;;;;;5033183;28;20131;-71
2023/04/10 05:30:17;;;;;;;43.92;31.15;;;4.40;99.90;;;;;;5032288;28;20182;-70
2023/04/10 05:33:02;;;;;;;53.85;34.33;;;4.50;99.90;;;;;;5053052;28;20457;-71
2023/04/10 05:35:47;;;;;;;47.15;32.70;;;4.60;99.90;;;;;;5052316;28;20059;-70
2023/04/10 05:38:24;;;;;;;45.35;33.10;;;4.80;99.90;;;;;;5035527;28;20044;-69
2023/04/10 05:41:10;;;;;;;39.88;32.38;;;4.90;99.90;;;;;;5038946;28;20044;-71
2023/04/10 05:43:57;;;;;;;39.97;31.42;;;5.10;99.90;;;;;;5014576;28;20276;-72
2023/04/10 05:46:44;;;;;;;37.38;32.88;;;5.40;99.90;;;;;;5044835;28;20040;-72
2023/04/10 05:49:30;;;;;;;37.10;32.85;;;5.60;99.90;;;;;;5051225;28;20044;-70
2023/04/10 05:52:13;;;;;;;39.38;34.97;;;5.60;99.90;;;;;;5028865;28;20128;-70
2023/04/10 05:55:08;;;;;;;37.78;33.95;;;5.70;99.90;;;;;;5031048;28;20302;-71
2023/04/10 05:57:41;;;;;;;38.42;34.20;;;5.80;99.90;;;;;;5053048;28;20569;-72
2023/04/10 06:00:22;;;;;;;38.33;34.28;;;5.90;99.90;;;;;;5034997;28;20154;-72
2023/04/10 06:03:29;;;;;;;38.03;34.28;;;6.10;99.90;;;;;;4952718;28;20278;-70
2023/04/10 06:06:01;;;;;;;40.17;36.08;;;6.20;99.90;;;;;;5032726;28;20131;-70
2023/04/10 06:08:29;;;;;;;39.47;35.67;;;6.30;99.90;;;;;;5034980;28;20068;-70
2023/04/10 06:10:56;;;;;;;43.00;38.88;;;6.30;99.90;;;;;;5040113;28;20038;-72
2023/04/10 06:13:23;;;;;;;42.88;38.67;;;6.40;99.90;;;;;;5034048;28;21031;-71
2023/04/10 06:15:54;;;;;;;42.85;38.42;;;6.50;99.90;;;;;;5023449;28;20044;-71
2023/04/10 06:18:20;;;;;;;44.15;39.83;;;6.60;99.90;;;;;;5032990;28;20072;-72
2023/04/10 06:20:47;;;;;;;44.42;40.05;;;6.70;99.90;;;;;;5040025;28;20040;-70
2023/04/10 06:23:14;;;;;;;43.25;39.28;;;6.80;99.90;;;;;;5042745;28;20585;-70
2023/04/10 06:25:42;;;;;;;41.50;37.78;;;6.80;99.90;;;;;;5035172;28;20469;-71
2023/04/10 06:28:09;;;;;;;42.10;38.25;;;6.90;99.90;;;;;;5033855;28;20086;-72
2023/04/10 06:30:36;;;;;;;41.40;37.20;;;7.00;99.90;;;;;;5054701;28;20384;-69
2023/04/10 06:33:05;;;;;;;43.10;39.17;;;7.10;99.90;;;;;;5034952;28;20032;-71
2023/04/10 06:35:35;;;;;;;44.03;40.13;;;7.30;99.90;;;;;;5018306;28;20140;-71
2023/04/10 06:38:02;;;;;;;42.83;39.10;;;7.50;99.90;;;;;;5033621;28;20055;-72
2023/04/10 06:40:33;;;;;;;41.63;38.03;;;7.70;99.90;;;;;;5042485;28;20082;-70
2023/04/10 06:43:00;;;;;;;43.13;38.90;;;7.80;99.90;;;;;;5057506;28;20059;-71
2023/04/10 06:45:33;;;;;;;42.92;39.20;;;8.10;99.90;;;;;;5044299;28;20213;-70
2023/04/10 06:48:00;;;;;;;42.53;38.65;;;8.10;99.90;;;;;;5053314;28;20241;-71
2023/04/10 06:50:27;;;;;;;43.83;39.85;;;8.20;99.90;;;;;;5051193;28;20122;-71
2023/04/10 06:52:55;;;;;;;43.10;39.22;;;8.20;99.90;;;;;;5033789;28;20123;-72
2023/04/10 06:55:21;;;;;;;39.45;35.88;;;8.20;99.90;;;;;;5037363;28;20051;-72
2023/04/10 06:57:48;;;;;;;41.25;37.47;;;8.20;99.90;;;;;;5050339;28;20517;-71
2023/04/10 07:00:15;;;;;;;41.85;38.35;;;8.20;99.90;;;;;;5051598;28;20037;-72
2023/04/10 07:02:42;;;;;;;40.63;37.03;;;8.20;99.90;;;;;;5036091;28;20180;-72
2023/04/10 07:05:09;;;;;;;41.85;38.35;;;8.20;99.90;;;;;;5038391;28;20041;-69
2023/04/10 07:07:36;;;;;;;40.88;37.28;;;8.20;99.90;;;;;;5050487;28;20123;-70
2023/04/10 07:10:02;;;;;;;42.80;39.22;;;8.30;99.90;;;;;;5052496;28;20048;-72
2023/04/10 07:12:29;;;;;;;44.30;40.42;;;8.40;99.90;;;;;;5050108;28;20056;-72
2023/04/10 07:14:56;;;;;;;44.13;40.42;;;8.70;99.90;;;;;;5052009;28;20439;-73
2023/04/10 07:17:24;;;;;;;43.78;39.95;;;8.80;99.90;;;;;;5046855;28;20052;-72
2023/04/10 07:19:51;;;;;;;44.60;40.70;;;9.00;99.90;;;;;;5053156;28;20044;-73
2023/04/10 07:22:17;;;;;;;43.55;39.78;;;9.20;99.90;;;;;;5032502;28;20072;-71
2023/04/10 07:24:44;;;;;;;44.22;40.45;;;9.40;99.90;;;;;;5034755;28;20040;-73
2023/04/10 07:27:11;;;;;;;46.15;42.25;;;9.50;99.90;;;;;;5048607;28;20262;-73
2023/04/10 07:29:38;;;;;;;44.47;40.88;;;9.60;99.90;;;;;;5055462;28;20071;-71
2023/04/10 07:32:05;;;;;;;45.95;42.10;;;9.80;99.90;;;;;;5053768;28;20406;-72
2023/04/10 07:34:32;;;;;;;48.70;44.90;;;10.00;99.90;;;;;;5039547;28;20426;-72
2023/04/10 07:36:59;;;;;;;46.63;42.92;;;10.10;99.90;;;;;;5052433;28;20032;-70
2023/04/10 07:39:26;;;;;;;49.13;45.45;;;10.40;99.90;;;;;;5057299;28;20068;-73
2023/04/10 07:41:54;;;;;;;47.88;44.17;;;10.50;99.90;;;;;;5050170;28;20041;-73
2023/04/10 07:44:20;;;;;;;50.83;47.10;;;10.50;99.90;;;;;;5052344;28;20040;-70
2023/04/10 07:46:47;;;;;;;50.75;47.00;;;10.80;99.90;;;;;;5033416;28;20037;-70
2023/04/10 07:49:14;;;;;;;50.92;47.10;;;10.50;99.90;;;;;;5043623;28;20040;-69
2023/04/10 07:51:40;;;;;;;51.33;47.33;;;10.60;99.90;;;;;;5028780;28;20056;-71
2023/04/10 07:54:07;;;;;;;63.45;57.97;;;10.60;99.90;;;;;;5049776;28;20506;-71
2023/04/10 07:56:34;;;;;;;57.05;52.38;;;10.70;99.90;;;;;;5046172;28;20041;-72
2023/04/10 07:59:02;;;;;;;57.42;52.30;;;10.90;99.90;;;;;;5048446;28;20214;-69
2023/04/10 08:01:29;;;;;;;50.47;45.70;;;11.30;99.90;;;;;;5048522;28;20413;-72
2023/04/10 08:03:55;;;;;;;43.60;39.72;;;11.40;99.90;;;;;;5053964;28;20079;-72
2023/04/10 08:06:22;;;;;;;42.67;39.38;;;11.30;99.90;;;;;;5050373;28;20098;-70
2023/04/10 08:08:51;;;;;;;41.95;38.55;;;11.40;99.90;;;;;;5046995;28;20204;-69
2023/04/10 08:11:26;;;;;;;41.53;38.22;;;11.70;99.90;;;;;;5049212;28;20064;-70
2023/04/10 08:13:56;;;;;;;39.95;36.63;;;12.00;99.90;;;;;;5045987;28;20064;-71
2023/04/10 08:16:24;;;;;;;39.38;36.25;;;12.20;99.90;;;;;;5044766;28;20114;-68
2023/04/10 08:18:52;;;;;;;42.47;39.15;;;12.30;99.90;;;;;;5032419;28;20048;-73
2023/04/10 08:21:21;;;;;;;40.33;37.22;;;12.30;99.90;;;;;;5009646;28;20134;-70
2023/04/10 08:23:51;;;;;;;41.78;38.58;;;12.40;99.90;;;;;;5048739;28;20412;-71
2023/04/10 08:26:20;;;;;;;41.88;38.60;;;12.60;99.90;;;;;;5030840;28;20049;-72
2023/04/10 08:28:49;;;;;;;42.58;39.33;;;12.70;99.90;;;;;;5054503;28;20040;-71
2023/04/10 08:31:17;;;;;;;43.78;40.38;;;12.80;99.90;;;;;;5021188;28;20155;-73
2023/04/10 08:33:44;;;;;;;42.90;39.67;;;13.00;99.90;;;;;;5037504;28;20054;-72
2023/04/10 08:36:11;;;;;;;41.50;38.40;;;13.00;99.90;;;;;;5045891;28;20043;-73
2023/04/10 08:38:38;;;;;;;43.55;40.25;;;13.00;99.90;;;;;;5039312;28;20283;-72
2023/04/10 08:41:05;;;;;;;42.22;39.22;;;13.20;99.90;;;;;;5057973;28;20043;-71
2023/04/10 08:43:33;;;;;;;42.30;39.22;;;13.20;99.90;;;;;;5053259;28;20051;-72
2023/04/10 08:46:00;;;;;;;41.35;38.25;;;13.50;99.90;;;;;;5036995;28;20128;-72
2023/04/10 08:48:34;;;;;;;43.67;40.50;;;13.40;99.90;;;;;;5056794;28;20303;-72
2023/04/10 08:51:06;;;;;;;44.40;40.90;;;13.20;99.90;;;;;;5050736;28;20040;-72
2023/04/10 08:53:39;;;;;;;;;;;13.30;99.90;;;;;;5050431;28;20623;-73
2023/04/10 08:56:06;;;;;;;42.55;39.25;;;13.50;99.90;;;;;;5036542;28;20433;-73
2023/04/10 08:58:33;;;;;;;42.60;39.22;;;13.40;99.90;;;;;;5049612;28;20521;-73
2023/04/10 09:01:00;;;;;;;42.70;39.33;;;13.50;99.90;;;;;;5055636;28;20044;-72
2023/04/10 09:03:27;;;;;;;42.90;39.55;;;13.50;99.90;;;;;;5050432;28;20071;-73
2023/04/10 09:05:55;;;;;;;48.42;44.90;;;13.80;99.90;;;;;;5054935;28;20312;-71
2023/04/10 09:08:22;;;;;;;52.25;48.65;;;13.90;99.90;;;;;;5047994;28;20059;-71
2023/04/10 09:10:48;;;;;;;50.80;47.30;;;13.90;99.90;;;;;;5049045;28;20236;-72
2023/04/10 09:13:15;;;;;;;48.97;45.88;;;13.90;99.90;;;;;;5052967;28;20450;-70
2023/04/10 09:15:56;;;;;;;48.92;45.45;;;14.10;99.90;;;;;;5030191;28;20047;-70
2023/04/10 09:18:41;;;;;;;51.75;48.33;;;14.20;99.90;;;;;;5015619;28;20530;-71
2023/04/10 09:21:10;;;;;;;49.92;46.63;;;14.30;99.90;;;;;;5033513;28;20515;-70
2023/04/10 09:23:37;;;;;;;47.03;43.83;;;14.20;99.90;;;;;;5052340;28;20143;-71
2023/04/10 09:26:24;;;;;;;49.75;46.38;;;14.30;99.90;;;;;;5039056;28;20494;-71
2023/04/10 09:29:05;;;;;;;50.35;47.00;;;14.40;99.90;;;;;;5047860;28;20052;-72
2023/04/10 09:31:34;;;;;;;51.35;47.75;;;14.40;99.90;;;;;;5051462;28;20102;-72
2023/04/10 09:34:14;;;;;;;47.28;43.88;;;14.40;99.90;;;;;;5050792;28;20041;-70
2023/04/10 09:37:01;;;;;;;44.53;41.30;;;14.50;99.90;;;;;;5033866;28;20431;-72
2023/04/10 09:39:41;;;;;;;48.50;45.13;;;14.40;99.90;;;;;;5051062;28;20051;-71
2023/04/10 09:42:10;;;;;;;49.30;45.80;;;14.20;99.90;;;;;;5052367;28;20072;-71
2023/04/10 09:44:38;;;;;;;49.40;46.30;;;14.30;99.90;;;;;;5052050;28;20036;-70
2023/04/10 09:47:15;;;;;;;51.47;48.08;;;14.30;99.90;;;;;;5036548;28;20121;-71
2023/04/10 09:49:56;;;;;;;50.97;47.63;;;14.60;99.90;;;;;;5025891;28;20063;-71
2023/04/10 09:52:27;;;;;;;52.25;48.80;;;14.80;99.90;;;;;;5034675;28;20665;-72
2023/04/10 09:54:55;;;;;;;49.78;46.58;;;14.80;99.90;;;;;;5056718;28;20647;-71
2023/04/10 09:57:24;;;;;;;49.08;45.78;;;14.50;99.90;;;;;;5051245;28;20128;-71
2023/04/10 09:59:53;;;;;;;50.92;47.38;;;14.70;99.90;;;;;;5050667;28;20054;-72
2023/04/10 10:02:22;;;;;;;50.60;47.50;;;14.80;99.90;;;;;;5048581;28;20045;-71
2023/04/10 10:04:50;;;;;;;51.92;48.50;;;14.90;99.90;;;;;;5053583;28;20028;-70
2023/04/10 10:07:22;;;;;;;50.95;47.75;;;15.10;99.90;;;;;;5052414;28;20476;-70
2023/04/10 10:09:51;;;;;;;52.72;49.50;;;15.40;99.90;;;;;;5028362;28;20048;-71
2023/04/10 10:12:36;;;;;;;52.83;49.53;;;15.40;99.90;;;;;;5038296;28;20033;-71
2023/04/10 10:15:20;;;;;;;52.50;49.30;;;15.30;99.90;;;;;;5034478;28;20041;-71
2023/04/10 10:18:06;;;;;;;54.03;50.63;;;15.20;99.90;;;;;;5033560;28;20503;-71
2023/04/10 10:20:35;;;;;;;52.10;48.80;;;14.90;99.90;;;;;;5051430;28;20268;-70
2023/04/10 10:23:03;;;;;;;51.83;48.42;;;14.80;99.90;;;;;;5033066;28;20036;-70
2023/04/10 10:25:30;;;;;;;52.33;49.17;;;14.90;99.90;;;;;;5048408;28;20083;-71
2023/04/10 10:28:01;;;;;;;49.13;46.03;;;15.10;99.90;;;;;;5053210;28;20044;-71
2023/04/10 10:30:32;;;;;;;53.00;49.75;;;15.20;99.90;;;;;;5044284;28;20446;-71
2023/04/10 10:33:01;;;;;;;50.40;47.30;;;15.30;99.90;;;;;;5053232;28;20510;-72
2023/04/10 10:35:30;;;;;;;54.72;51.20;;;15.60;99.90;;;;;;5045219;28;20041;-71
2023/04/10 10:38:02;;;;;;;54.47;50.97;;;15.60;99.90;;;;;;5034577;28;20064;-72
2023/04/10 10:40:44;;;;;;;52.63;49.33;;;15.30;99.90;;;;;;5051274;28;20507;-72
2023/04/10 10:43:23;;;;;;;53.88;50.58;;;15.40;99.90;;;;;;5051542;28;20090;-70
2023/04/10 10:46:01;;;;;;;54.70;51.00;;;15.30;99.90;;;;;;5051225;28;20075;-71
2023/04/10 10:48:28;;;;;;;51.67;48.38;;;15.40;99.90;;;;;;5050256;28;20051;-71
2023/04/10 10:50:57;;;;;;;55.85;52.35;;;15.20;99.90;;;;;;5052010;28;20056;-69
2023/04/10 10:53:35;;;;;;;55.53;51.92;;;15.30;99.90;;;;;;5050393;28;20135;-70
2023/04/10 10:56:17;;;;;;;55.65;51.95;;;15.40;99.90;;;;;;5053485;28;20223;-71
2023/04/10 10:59:00;;;;;;;58.35;54.58;;;15.40;99.90;;;;;;5050822;28;20509;-72
2023/04/10 11:01:27;;;;;;;51.78;48.58;;;15.30;99.90;;;;;;5030300;28;20071;-71
2023/04/10 11:03:54;;;;;;;54.92;51.40;;;15.10;99.90;;;;;;5038830;28;20040;-72
2023/04/10 11:06:48;;;;;;;55.38;52.05;;;15.00;99.90;;;;;;5032481;28;20052;-69
2023/04/10 11:09:50;;;;;;;54.60;51.10;;;15.10;99.90;;;;;;5048016;28;20120;-70
2023/04/10 11:12:24;;;;;;;54.00;50.50;;;15.10;99.90;;;;;;5048503;28;20444;-72
2023/04/10 11:15:00;;;;;;;56.47;52.80;;;15.00;99.90;;;;;;5072063;28;21355;-73
2023/04/10 11:17:49;;;;;;;55.20;51.80;;;15.00;99.90;;;;;;5046439;28;20499;-72
2023/04/10 11:20:20;;;;;;;53.95;50.53;;;15.30;99.90;;;;;;5053513;28;20071;-71
2023/04/10 11:23:10;;;;;;;61.17;57.17;;;15.70;99.90;;;;;;5038909;28;20517;-71
2023/04/10 11:25:50;;;;;;;56.72;53.03;;;15.70;99.90;;;;;;5034295;28;20049;-71
2023/04/10 11:28:32;;;;;;;52.60;49.58;;;16.00;99.90;;;;;;5045517;28;20048;-71
2023/04/10 11:31:18;;;;;;;56.65;52.95;;;16.10;99.90;;;;;;5059339;28;21268;-72
2023/04/10 11:34:06;;;;;;;55.00;51.70;;;16.10;99.90;;;;;;5050662;28;20474;-70
2023/04/10 11:36:37;;;;;;;54.42;51.03;;;16.30;99.90;;;;;;5054250;28;20045;-71
2023/04/10 11:39:05;;;;;;;54.58;51.28;;;16.20;99.90;;;;;;5048621;28;20447;-70
2023/04/10 11:41:36;;;;;;;52.33;48.65;;;16.30;99.90;;;;;;5046923;28;20076;-71
2023/04/10 11:44:09;;;;;;;49.88;46.75;;;16.30;99.90;;;;;;5040558;28;20048;-70
2023/04/10 11:46:38;;;;;;;55.35;52.05;;;16.20;99.90;;;;;;5057628;28;20044;-72
2023/04/10 11:49:06;;;;;;;51.88;48.78;;;16.10;99.90;;;;;;5055506;28;20040;-72
2023/04/10 11:51:33;;;;;;;53.33;50.22;;;15.90;99.90;;;;;;5049965;28;20071;-73
2023/04/10 11:54:08;;;;;;;55.50;52.00;;;16.00;99.90;;;;;;5054848;28;20107;-72
2023/04/10 11:56:36;;;;;;;53.50;50.03;;;15.80;99.90;;;;;;5023234;23;20042;-73
2023/04/10 11:59:09;;;;;;;50.35;47.15;;;15.60;99.90;;;;;;4952916;28;20050;-72
2023/04/10 12:01:37;;;;;;;53.28;49.85;;;15.50;99.90;;;;;;4969445;28;20051;-72
2023/04/10 12:04:18;;;;;;;53.65;50.08;;;15.60;99.90;;;;;;4982711;28;20437;-71
2023/04/10 12:06:52;;;;;;;51.03;47.92;;;15.80;99.90;;;;;;4988725;28;20484;-72
2023/04/10 12:09:20;;;;;;;52.83;49.27;;;15.70;99.90;;;;;;4965794;28;20156;-71
2023/04/10 12:11:52;;;;;;;53.75;50.25;;;15.80;99.90;;;;;;4969846;28;20247;-72
2023/04/10 12:14:21;;;;;;;56.17;52.30;;;16.00;99.90;;;;;;4966881;28;20065;-72
2023/04/10 12:16:48;;;;;;;49.90;46.70;;;16.20;99.90;;;;;;4974402;28;20045;-71
2023/04/10 12:19:17;;;;;;;54.42;50.95;;;16.10;99.90;;;;;;4974037;28;20060;-70
2023/04/10 12:21:44;;;;;;;57.05;53.45;;;16.00;99.90;;;;;;4965695;28;20125;-71
2023/04/10 12:24:12;;;;;;;48.83;46.05;;;15.90;99.90;;;;;;4976387;28;20111;-72
2023/04/10 12:26:48;;;;;;;50.90;47.70;;;15.80;99.90;;;;;;4954361;28;20441;-70
2023/04/10 12:29:15;;;;;;;52.97;49.78;;;15.90;99.90;;;;;;4977358;28;20052;-71
2023/04/10 12:31:42;;;;;;;51.33;48.33;;;15.90;99.90;;;;;;4969456;28;20038;-72
2023/04/10 12:34:09;;;;;;;55.85;52.25;;;16.00;99.90;;;;;;4956891;28;20481;-72
2023/04/10 12:36:37;;;;;;;55.13;51.72;;;16.20;99.90;;;;;;4955843;28;20163;-72
2023/04/10 12:39:05;;;;;;;54.60;51.40;;;16.40;99.90;;;;;;4959257;28;20431;-72
2023/04/10 12:41:33;;;;;;;60.05;56.28;;;16.50;99.90;;;;;;4974759;28;20064;-71
2023/04/10 12:44:08;;;;;;;62.33;58.35;;;16.50;99.90;;;;;;4955509;28;20512;-72
2023/04/10 12:46:35;;;;;;;59.83;55.78;;;16.70;99.90;;;;;;4956599;28;20042;-72
2023/04/10 12:49:10;;;;;;;55.60;52.38;;;16.90;99.90;;;;;;4955954;28;20057;-72
2023/04/10 12:51:41;;;;;;;52.72;49.70;;;16.70;99.90;;;;;;4957172;28;20050;-71
2023/04/10 12:54:08;;;;;;;41.38;38.72;;;16.60;99.90;;;;;;4954982;28;20062;-71
2023/04/10 12:56:42;;;;;;;56.25;52.95;;;16.60;99.90;;;;;;4954367;28;20303;-72
2023/04/10 12:59:09;;;;;;;52.58;49.50;;;16.80;99.90;;;;;;4958361;28;20050;-73